createdAt,value
2022-11-24T00:00:16.142Z,82.00
2022-11-24T00:02:16.420Z,82.00
2022-11-24T00:04:16.165Z,82.00
2022-11-24T00:06:16.288Z,82.00
2022-11-24T00:08:16.125Z,82.00
2022-11-24T00:10:16.161Z,82.00
2022-11-24T00:12:16.217Z,82.00
2022-11-24T00:14:16.200Z,82.00
2022-11-24T00:16:16.266Z,82.00
2022-11-24T00:18:17.668Z,82.00
2022-11-24T00:20:16.271Z,82.00
2022-11-24T00:22:16.304Z,82.00
2022-11-24T00:23:57.158Z,82.00
2022-11-24T00:25:57.113Z,82.00
2022-11-24T00:27:57.168Z,82.00
2022-11-24T00:29:57.168Z,82.00
2022-11-24T00:31:57.158Z,82.00
2022-11-24T00:33:57.154Z,82.00
2022-11-24T00:35:57.225Z,82.00
2022-11-24T00:37:57.178Z,82.00
2022-11-24T00:40:32.087Z,82.00
2022-11-24T00:42:27.127Z,82.00
2022-11-24T00:44:27.116Z,82.00
2022-11-24T00:46:27.358Z,82.00
2022-11-24T00:48:27.133Z,82.00
2022-11-24T00:50:27.273Z,82.00
2022-11-24T00:52:27.235Z,82.00
2022-11-24T00:54:27.199Z,82.00
2022-11-24T00:56:27.263Z,82.00
2022-11-24T00:58:27.159Z,82.00
2022-11-24T01:00:27.181Z,82.00
2022-11-24T01:02:27.222Z,82.00
2022-11-24T01:04:27.298Z,82.00
2022-11-24T01:06:27.169Z,82.00
2022-11-24T01:08:27.286Z,82.00
2022-11-24T01:10:27.187Z,82.00
2022-11-24T01:12:27.158Z,82.00
2022-11-24T01:14:27.229Z,82.00
2022-11-24T01:16:27.225Z,82.00
2022-11-24T01:18:27.179Z,82.00
2022-11-24T01:20:27.291Z,82.00
2022-11-24T01:22:27.156Z,82.00
2022-11-24T01:24:30.859Z,82.00
2022-11-24T01:26:27.323Z,82.00
2022-11-24T01:28:27.191Z,82.00
2022-11-24T01:30:27.278Z,82.00
2022-11-24T01:32:27.168Z,82.00
2022-11-24T01:34:27.287Z,82.00
2022-11-24T01:36:27.163Z,82.00
2022-11-24T01:38:27.197Z,82.00
2022-11-24T01:40:27.168Z,82.00
2022-11-24T01:42:27.145Z,82.00
2022-11-24T01:44:27.157Z,82.00
2022-11-24T01:46:27.282Z,82.00
2022-11-24T01:48:28.065Z,82.00
2022-11-24T01:50:27.210Z,82.00
2022-11-24T01:52:27.205Z,82.00
2022-11-24T01:54:27.178Z,82.00
2022-11-24T01:56:27.179Z,82.00
2022-11-24T01:58:27.168Z,82.00
2022-11-24T02:00:27.224Z,82.00
2022-11-24T02:02:27.268Z,82.00
2022-11-24T02:04:27.179Z,82.00
2022-11-24T02:06:27.265Z,82.00
2022-11-24T02:08:27.187Z,82.00
2022-11-24T02:10:27.199Z,82.00
2022-11-24T02:12:27.172Z,82.00
2022-11-24T02:14:27.232Z,82.00
2022-11-24T02:16:27.265Z,82.00
2022-11-24T02:18:27.172Z,82.00
2022-11-24T02:20:27.283Z,82.00
2022-11-24T02:22:27.228Z,82.00
2022-11-24T02:24:27.178Z,82.00
2022-11-24T02:26:27.257Z,82.00
2022-11-24T02:28:27.216Z,82.00
2022-11-24T02:30:27.200Z,82.00
2022-11-24T02:32:57.216Z,82.00
2022-11-24T02:34:57.242Z,82.00
2022-11-24T02:36:57.244Z,82.00
2022-11-24T02:38:57.207Z,82.00
2022-11-24T02:40:57.197Z,82.00
2022-11-24T02:42:57.241Z,82.00
2022-11-24T02:44:57.269Z,82.00
2022-11-24T02:46:57.247Z,82.00
2022-11-24T02:48:57.297Z,82.00
2022-11-24T02:50:57.184Z,82.00
2022-11-24T02:52:57.345Z,82.00
2022-11-24T02:54:57.239Z,82.00
2022-11-24T02:56:57.242Z,82.00
2022-11-24T02:58:57.236Z,82.00
2022-11-24T03:00:57.208Z,81.00
2022-11-24T03:02:57.364Z,81.00
2022-11-24T03:04:57.241Z,81.00
2022-11-24T03:06:57.189Z,81.00
2022-11-24T03:08:57.225Z,81.00
2022-11-24T03:10:57.229Z,81.00
2022-11-24T03:12:57.214Z,81.00
2022-11-24T03:14:57.237Z,81.00
2022-11-24T03:16:57.216Z,81.00
2022-11-24T03:18:57.225Z,81.00
2022-11-24T03:20:57.254Z,81.00
2022-11-24T03:22:57.250Z,81.00
2022-11-24T03:24:57.268Z,81.00
2022-11-24T03:26:57.259Z,81.00
2022-11-24T03:28:57.380Z,81.00
2022-11-24T03:30:57.242Z,81.00
2022-11-24T03:32:57.269Z,81.00
2022-11-24T03:34:57.246Z,80.00
2022-11-24T03:36:57.217Z,80.00
2022-11-24T03:38:57.362Z,80.00
2022-11-24T03:40:57.258Z,80.00
2022-11-24T03:42:57.402Z,80.00
2022-11-24T03:44:57.302Z,80.00
2022-11-24T03:46:57.270Z,80.00
2022-11-24T03:48:57.339Z,80.00
2022-11-24T03:50:57.276Z,80.00
2022-11-24T03:52:57.353Z,80.00
2022-11-24T03:54:57.210Z,80.00
2022-11-24T03:56:57.401Z,80.00
2022-11-24T03:58:57.223Z,80.00
2022-11-24T04:00:57.321Z,80.00
2022-11-24T04:02:57.355Z,80.00
2022-11-24T04:04:57.872Z,80.00
2022-11-24T04:06:57.273Z,80.00
2022-11-24T04:08:57.368Z,80.00
2022-11-24T04:10:57.249Z,80.00
2022-11-24T04:12:57.284Z,80.00
2022-11-24T04:14:57.294Z,80.00
2022-11-24T04:16:57.274Z,80.00
2022-11-24T04:18:57.312Z,80.00
2022-11-24T04:20:57.258Z,80.00
2022-11-24T04:22:57.266Z,80.00
2022-11-24T04:24:57.341Z,80.00
2022-11-24T04:27:27.263Z,81.00
2022-11-24T04:29:27.291Z,81.00
2022-11-24T04:31:27.448Z,81.00
2022-11-24T04:33:27.303Z,81.00
2022-11-24T04:35:27.245Z,81.00
2022-11-24T04:37:27.362Z,81.00
2022-11-24T04:39:27.955Z,81.00
2022-11-24T04:41:27.284Z,80.00
2022-11-24T04:43:27.305Z,80.00
2022-11-24T04:47:27.237Z,80.00
2022-11-24T04:49:27.249Z,79.00
2022-11-24T04:51:27.350Z,79.00
2022-11-24T04:53:27.312Z,79.00
2022-11-24T04:55:27.353Z,79.00
2022-11-24T04:57:27.276Z,78.00
2022-11-24T04:59:27.310Z,78.00
2022-11-24T05:01:27.433Z,78.00
2022-11-24T05:03:27.316Z,78.00
2022-11-24T05:05:27.325Z,78.00
2022-11-24T05:07:27.307Z,77.00
2022-11-24T05:09:47.979Z,77.00
2022-11-24T05:11:27.276Z,77.00
2022-11-24T05:13:27.302Z,77.00
2022-11-24T05:15:27.305Z,77.00
2022-11-24T05:17:27.320Z,77.00
2022-11-24T05:19:31.216Z,77.00
2022-11-24T05:21:27.288Z,77.00
2022-11-24T05:23:27.311Z,77.00
2022-11-24T05:25:27.309Z,76.00
2022-11-24T05:27:27.287Z,76.00
2022-11-24T05:29:27.369Z,76.00
2022-11-24T05:31:27.387Z,75.00
2022-11-24T05:33:27.284Z,75.00
2022-11-24T05:35:27.325Z,75.00
2022-11-24T05:37:27.326Z,75.00
2022-11-24T05:39:27.437Z,75.00
2022-11-24T05:41:27.354Z,74.00
2022-11-24T05:43:27.368Z,74.00
2022-11-24T05:45:27.340Z,74.00
2022-11-24T05:47:27.301Z,74.00
2022-11-24T05:49:27.287Z,74.00
2022-11-24T05:51:27.302Z,74.00
2022-11-24T05:53:27.301Z,74.00
2022-11-24T05:55:27.415Z,74.00
2022-11-24T05:57:27.344Z,74.00
2022-11-24T05:59:27.364Z,73.00
2022-11-24T06:01:27.353Z,73.00
2022-11-24T06:03:27.361Z,73.00
2022-11-24T06:05:27.384Z,73.00
2022-11-24T06:07:27.465Z,73.00
2022-11-24T06:09:27.452Z,73.00
2022-11-24T06:11:27.431Z,74.00
2022-11-24T06:13:27.324Z,74.00
2022-11-24T06:15:27.301Z,74.00
2022-11-24T06:17:27.315Z,74.00
2022-11-24T06:19:27.329Z,75.00
2022-11-24T06:21:27.410Z,75.00
2022-11-24T06:23:57.426Z,76.00
2022-11-24T06:25:57.435Z,76.00
2022-11-24T06:27:57.348Z,76.00
2022-11-24T06:29:57.388Z,76.00
2022-11-24T06:31:57.481Z,76.00
2022-11-24T06:33:57.343Z,76.00
2022-11-24T06:35:57.364Z,76.00
2022-11-24T06:37:57.362Z,76.00
2022-11-24T06:39:57.327Z,76.00
2022-11-24T06:41:57.325Z,76.00
2022-11-24T06:43:57.397Z,76.00
2022-11-24T06:45:57.380Z,76.00
2022-11-24T06:47:57.346Z,76.00
2022-11-24T06:49:57.310Z,76.00
2022-11-24T06:51:57.397Z,76.00
2022-11-24T06:53:57.534Z,76.00
2022-11-24T06:55:57.469Z,76.00
2022-11-24T06:57:57.490Z,76.00
2022-11-24T06:59:57.417Z,76.00
2022-11-24T07:01:57.379Z,76.00
2022-11-24T07:03:57.355Z,76.00
2022-11-24T07:05:57.360Z,76.00
2022-11-24T07:07:57.395Z,76.00
2022-11-24T07:09:57.451Z,76.00
2022-11-24T07:11:57.381Z,76.00
2022-11-24T07:14:00.106Z,77.00
2022-11-24T07:15:57.372Z,77.00
2022-11-24T07:17:57.401Z,77.00
2022-11-24T07:19:57.439Z,77.00
2022-11-24T07:21:57.727Z,77.00
2022-11-24T07:23:57.508Z,77.00
2022-11-24T07:26:00.164Z,77.00
2022-11-24T07:30:05.895Z,77.00
2022-11-24T07:32:05.926Z,77.00
2022-11-24T07:34:05.666Z,77.00
2022-11-24T07:36:05.670Z,77.00
2022-11-24T07:38:05.661Z,77.00
2022-11-24T07:40:05.669Z,77.00
2022-11-24T07:42:05.676Z,77.00
2022-11-24T07:44:05.775Z,77.00
2022-11-24T07:46:05.750Z,77.00
2022-11-24T07:48:05.653Z,77.00
2022-11-24T07:50:05.792Z,77.00
2022-11-24T07:52:05.697Z,77.00
2022-11-24T07:54:05.702Z,77.00
2022-11-24T07:56:05.841Z,77.00
2022-11-24T07:58:05.690Z,77.00
2022-11-24T08:00:05.672Z,77.00
2022-11-24T08:02:05.806Z,77.00
2022-11-24T08:04:05.734Z,77.00
2022-11-24T08:06:26.202Z,77.00
2022-11-24T08:08:05.930Z,77.00
2022-11-24T08:10:05.817Z,77.00
2022-11-24T08:12:05.835Z,77.00
2022-11-24T08:14:05.866Z,77.00
2022-11-24T08:16:05.709Z,77.00
2022-11-24T08:18:05.684Z,78.00
2022-11-24T08:20:05.746Z,78.00
2022-11-24T08:22:05.777Z,78.00
2022-11-24T08:24:05.680Z,78.00
2022-11-24T08:26:05.718Z,78.00
2022-11-24T08:28:05.734Z,78.00
2022-11-24T08:30:05.804Z,78.00
2022-11-24T08:32:05.792Z,78.00
2022-11-24T08:34:05.695Z,78.00
2022-11-24T08:36:05.719Z,78.00
2022-11-24T08:38:05.678Z,78.00
2022-11-24T08:40:05.813Z,78.00
2022-11-24T08:42:05.811Z,78.00
2022-11-24T08:44:05.720Z,78.00
2022-11-24T08:46:05.876Z,78.00
2022-11-24T08:48:05.815Z,78.00
2022-11-24T08:50:35.724Z,78.00
2022-11-24T08:52:35.757Z,78.00
2022-11-24T08:54:36.004Z,78.00
2022-11-24T08:56:35.703Z,78.00
2022-11-24T08:58:35.800Z,79.00
2022-11-24T09:00:35.708Z,79.00
2022-11-24T09:02:35.706Z,79.00
2022-11-24T09:04:35.930Z,79.00
2022-11-24T09:06:35.791Z,79.00
2022-11-24T09:08:35.858Z,79.00
2022-11-24T09:10:35.753Z,79.00
2022-11-24T09:12:35.749Z,79.00
2022-11-24T09:14:35.980Z,79.00
2022-11-24T09:16:35.741Z,79.00
2022-11-24T09:18:35.805Z,79.00
2022-11-24T09:20:35.859Z,79.00
2022-11-24T09:22:35.762Z,79.00
2022-11-24T09:24:35.735Z,79.00
2022-11-24T09:26:35.774Z,79.00
2022-11-24T09:28:35.771Z,79.00
2022-11-24T09:30:35.844Z,79.00
2022-11-24T09:32:35.771Z,79.00
2022-11-24T09:34:35.740Z,79.00
2022-11-24T09:36:35.750Z,79.00
2022-11-24T09:38:35.807Z,79.00
2022-11-24T09:40:35.881Z,79.00
2022-11-24T09:42:35.861Z,79.00
2022-11-24T09:44:35.747Z,79.00
2022-11-24T09:46:35.791Z,80.00
2022-11-24T09:48:35.877Z,80.00
2022-11-24T09:50:35.844Z,80.00
2022-11-24T09:52:35.780Z,80.00
2022-11-24T09:54:35.789Z,80.00
2022-11-24T09:56:35.761Z,80.00
2022-11-24T09:58:35.747Z,80.00
2022-11-24T10:00:35.810Z,80.00
2022-11-24T10:02:35.762Z,80.00
2022-11-24T10:04:35.873Z,80.00
2022-11-24T10:06:35.836Z,80.00
2022-11-24T10:08:35.786Z,80.00
2022-11-24T10:10:35.763Z,80.00
2022-11-24T10:12:35.828Z,80.00
2022-11-24T10:14:35.888Z,79.00
2022-11-24T10:16:35.755Z,79.00
2022-11-24T10:18:35.798Z,79.00
2022-11-24T10:20:35.771Z,79.00
2022-11-24T10:22:35.740Z,79.00
2022-11-24T10:24:35.781Z,79.00
2022-11-24T10:26:35.803Z,79.00
2022-11-24T10:28:35.760Z,79.00
2022-11-24T10:30:35.794Z,79.00
2022-11-24T10:32:35.823Z,79.00
2022-11-24T10:34:35.781Z,79.00
2022-11-24T10:36:35.816Z,79.00
2022-11-24T10:38:35.761Z,79.00
2022-11-24T10:40:56.611Z,80.00
2022-11-24T10:42:35.822Z,80.00
2022-11-24T10:45:05.764Z,79.00
2022-11-24T10:47:05.781Z,79.00
2022-11-24T10:49:05.762Z,79.00
2022-11-24T10:51:05.754Z,79.00
2022-11-24T10:53:05.894Z,79.00
2022-11-24T10:55:05.859Z,79.00
2022-11-24T10:57:05.897Z,79.00
2022-11-24T10:59:05.763Z,79.00
2022-11-24T11:01:05.868Z,79.00
2022-11-24T11:03:05.904Z,79.00
2022-11-24T11:05:05.851Z,79.00
2022-11-24T11:07:05.860Z,79.00
2022-11-24T11:09:05.832Z,79.00
2022-11-24T11:11:05.806Z,79.00
2022-11-24T11:13:05.777Z,79.00
2022-11-24T11:15:05.807Z,79.00
2022-11-24T11:17:05.842Z,79.00
2022-11-24T11:19:25.869Z,79.00
2022-11-24T11:21:05.815Z,79.00
2022-11-24T11:23:05.880Z,79.00
2022-11-24T11:25:05.845Z,78.00
2022-11-24T11:27:05.822Z,78.00
2022-11-24T11:31:21.370Z,77.00
2022-11-24T11:35:05.830Z,77.00
2022-11-24T11:37:05.837Z,76.00
2022-11-24T11:39:05.848Z,76.00
2022-11-24T11:41:05.834Z,76.00
2022-11-24T11:43:05.858Z,76.00
2022-11-24T11:45:05.846Z,76.00
2022-11-24T11:47:05.907Z,76.00
2022-11-24T11:49:05.971Z,76.00
2022-11-24T11:51:23.176Z,76.00
2022-11-24T11:53:05.822Z,76.00
2022-11-24T11:55:05.834Z,76.00
2022-11-24T11:57:05.815Z,76.00
2022-11-24T11:59:06.099Z,76.00
2022-11-24T12:01:05.809Z,76.00
2022-11-24T12:03:05.981Z,76.00
2022-11-24T12:05:05.912Z,76.00
2022-11-24T12:07:05.853Z,76.00
2022-11-24T12:09:20.196Z,76.00
2022-11-24T12:11:05.959Z,76.00
2022-11-24T12:13:05.810Z,76.00
2022-11-24T12:15:10.507Z,76.00
2022-11-24T12:17:05.809Z,76.00
2022-11-24T12:19:05.876Z,75.00
2022-11-24T12:21:05.966Z,74.00
2022-11-24T12:23:05.863Z,74.00
2022-11-24T12:25:05.846Z,75.00
2022-11-24T12:27:05.817Z,75.00
2022-11-24T12:29:05.925Z,75.00
2022-11-24T12:31:05.952Z,75.00
2022-11-24T12:33:06.004Z,75.00
2022-11-24T12:35:05.875Z,75.00
2022-11-24T12:37:05.828Z,75.00
2022-11-24T12:39:05.896Z,74.00
2022-11-24T12:41:42.476Z,74.00
2022-11-24T12:43:35.975Z,74.00
2022-11-24T12:45:36.673Z,74.00
2022-11-24T12:47:35.933Z,75.00
2022-11-24T12:49:36.026Z,75.00
2022-11-24T12:51:35.881Z,75.00
2022-11-24T12:53:35.880Z,75.00
2022-11-24T12:55:35.977Z,75.00
2022-11-24T12:57:35.828Z,74.00
2022-11-24T12:59:36.242Z,75.00
2022-11-24T13:01:36.154Z,75.00
2022-11-24T13:03:35.974Z,75.00
2022-11-24T13:05:35.873Z,75.00
2022-11-24T13:07:36.049Z,75.00
2022-11-24T13:09:35.961Z,75.00
2022-11-24T13:11:35.885Z,75.00
2022-11-24T13:13:35.891Z,75.00
2022-11-24T13:15:46.165Z,75.00
2022-11-24T13:17:50.306Z,75.00
2022-11-24T13:19:35.930Z,76.00
2022-11-24T13:21:35.920Z,76.00
2022-11-24T13:23:35.903Z,76.00
2022-11-24T13:25:35.921Z,76.00
2022-11-24T13:27:35.965Z,76.00
2022-11-24T13:29:35.914Z,76.00
2022-11-24T13:31:35.915Z,76.00
2022-11-24T13:33:35.908Z,76.00
2022-11-24T13:35:35.926Z,76.00
2022-11-24T13:37:36.284Z,76.00
2022-11-24T13:39:39.174Z,76.00
2022-11-24T13:41:35.869Z,76.00
2022-11-24T13:43:35.949Z,76.00
2022-11-24T13:45:35.983Z,76.00
2022-11-24T13:47:36.012Z,76.00
2022-11-24T13:49:35.903Z,76.00
2022-11-24T13:51:35.936Z,76.00
2022-11-24T13:53:36.087Z,75.00
2022-11-24T13:55:36.025Z,75.00
2022-11-24T13:57:35.973Z,75.00
2022-11-24T13:59:36.034Z,75.00
2022-11-24T14:01:35.985Z,75.00
2022-11-24T14:03:35.939Z,75.00
2022-11-24T14:05:35.884Z,75.00
2022-11-24T14:07:36.045Z,75.00
2022-11-24T14:09:35.930Z,75.00
2022-11-24T14:11:36.055Z,75.00
2022-11-24T14:13:35.920Z,75.00
2022-11-24T14:15:35.938Z,75.00
2022-11-24T14:17:35.996Z,75.00
2022-11-24T14:19:35.983Z,75.00
2022-11-24T14:21:35.929Z,75.00
2022-11-24T14:23:36.012Z,75.00
2022-11-24T14:25:35.907Z,75.00
2022-11-24T14:27:36.033Z,75.00
2022-11-24T14:31:36.182Z,75.00
2022-11-24T14:36:06.039Z,75.00
2022-11-24T14:38:06.153Z,75.00
2022-11-24T14:42:06.150Z,74.00
2022-11-24T14:45:44.408Z,74.00
2022-11-24T14:47:44.392Z,74.00
2022-11-24T14:49:44.505Z,74.00
2022-11-24T14:51:44.496Z,74.00
2022-11-24T14:53:44.537Z,73.00
2022-11-24T14:55:44.498Z,73.00
2022-11-24T14:57:44.512Z,73.00
2022-11-24T14:59:44.427Z,73.00
2022-11-24T15:01:44.496Z,73.00
2022-11-24T15:03:44.434Z,73.00
2022-11-24T15:06:14.476Z,73.00
2022-11-24T15:08:14.418Z,73.00
2022-11-24T15:10:14.526Z,73.00
2022-11-24T15:12:14.544Z,73.00
2022-11-24T15:14:14.560Z,73.00
2022-11-24T15:16:14.568Z,73.00
2022-11-24T15:18:14.451Z,73.00
2022-11-24T15:20:14.445Z,73.00
2022-11-24T15:22:14.527Z,73.00
2022-11-24T15:24:14.490Z,73.00
2022-11-24T15:26:14.524Z,73.00
2022-11-24T15:28:14.550Z,73.00
2022-11-24T15:30:14.571Z,73.00
2022-11-24T15:32:14.511Z,73.00
2022-11-24T15:34:14.586Z,73.00
2022-11-24T15:36:14.505Z,73.00
2022-11-24T15:38:14.508Z,73.00
2022-11-24T15:40:14.539Z,73.00
2022-11-24T15:42:14.456Z,73.00
2022-11-24T15:44:14.484Z,73.00
2022-11-24T15:46:14.653Z,74.00
2022-11-24T15:48:17.966Z,74.00
2022-11-24T15:50:14.489Z,74.00
2022-11-24T15:52:14.567Z,74.00
2022-11-24T15:54:14.532Z,74.00
2022-11-24T15:56:14.575Z,74.00
2022-11-24T15:58:14.600Z,74.00
2022-11-24T16:00:14.586Z,75.00
2022-11-24T16:02:14.565Z,75.00
2022-11-24T16:04:14.597Z,75.00
2022-11-24T16:06:19.072Z,75.00
2022-11-24T16:08:14.695Z,75.00
2022-11-24T16:10:14.533Z,75.00
2022-11-24T16:12:14.642Z,75.00
2022-11-24T16:14:14.729Z,75.00
2022-11-24T16:16:14.675Z,75.00
2022-11-24T16:18:14.711Z,75.00
2022-11-24T16:20:14.643Z,75.00
2022-11-24T16:22:14.525Z,75.00
2022-11-24T16:24:14.784Z,75.00
2022-11-24T16:26:14.566Z,75.00
2022-11-24T16:28:14.488Z,75.00
2022-11-24T16:30:14.600Z,75.00
2022-11-24T16:32:14.586Z,75.00
2022-11-24T16:34:14.849Z,75.00
2022-11-24T16:36:14.558Z,75.00
2022-11-24T16:38:14.603Z,75.00
2022-11-24T16:40:14.595Z,75.00
2022-11-24T16:42:14.561Z,75.00
2022-11-24T16:44:14.535Z,75.00
2022-11-24T16:46:14.655Z,75.00
2022-11-24T16:48:14.648Z,75.00
2022-11-24T16:50:14.666Z,75.00
2022-11-24T16:52:14.547Z,75.00
2022-11-24T16:54:14.610Z,75.00
2022-11-24T16:58:44.624Z,75.00
2022-11-24T17:00:44.630Z,75.00
2022-11-24T17:02:44.565Z,75.00
2022-11-24T17:04:44.555Z,75.00
2022-11-24T17:06:44.539Z,75.00
2022-11-24T17:08:44.567Z,75.00
2022-11-24T17:10:44.557Z,75.00
2022-11-24T17:12:44.554Z,75.00
2022-11-24T17:14:53.099Z,75.00
2022-11-24T17:16:44.718Z,75.00
2022-11-24T17:18:44.645Z,75.00
2022-11-24T17:20:44.515Z,76.00
2022-11-24T17:22:44.524Z,76.00
2022-11-24T17:24:44.609Z,76.00
2022-11-24T17:26:48.804Z,76.00
2022-11-24T17:28:44.501Z,76.00
2022-11-24T17:30:44.614Z,76.00
2022-11-24T17:32:44.500Z,76.00
2022-11-24T17:34:44.686Z,76.00
2022-11-24T17:36:44.523Z,76.00
2022-11-24T17:38:44.529Z,76.00
2022-11-24T17:40:44.611Z,76.00
2022-11-24T17:42:44.595Z,76.00
2022-11-24T17:44:44.500Z,76.00
2022-11-24T17:46:44.656Z,76.00
2022-11-24T17:48:44.649Z,76.00
2022-11-24T17:50:44.601Z,76.00
2022-11-24T17:52:44.514Z,76.00
2022-11-24T17:54:56.575Z,76.00
2022-11-24T17:56:44.602Z,76.00
2022-11-24T17:58:44.589Z,76.00
2022-11-24T18:00:44.664Z,76.00
2022-11-24T18:02:44.683Z,76.00
2022-11-24T18:04:44.665Z,76.00
2022-11-24T18:06:44.615Z,76.00
2022-11-24T18:08:44.566Z,76.00
2022-11-24T18:10:44.627Z,76.00
2022-11-24T18:12:44.645Z,76.00
2022-11-24T18:14:44.614Z,76.00
2022-11-24T18:16:44.712Z,76.00
2022-11-24T18:18:48.826Z,76.00
2022-11-24T18:20:44.571Z,76.00
2022-11-24T18:23:05.233Z,76.00
2022-11-24T18:24:44.671Z,76.00
2022-11-24T18:26:44.626Z,76.00
2022-11-24T18:28:44.538Z,76.00
2022-11-24T18:30:44.775Z,76.00
2022-11-24T18:32:44.818Z,76.00
2022-11-24T18:34:44.695Z,76.00
2022-11-24T18:36:44.679Z,76.00
2022-11-24T18:38:44.715Z,76.00
2022-11-24T18:40:44.758Z,76.00
2022-11-24T18:42:44.789Z,76.00
2022-11-24T18:44:45.400Z,76.00
2022-11-24T18:46:44.634Z,76.00
2022-11-24T18:49:14.631Z,76.00
2022-11-24T18:51:14.764Z,76.00
2022-11-24T18:53:14.855Z,77.00
2022-11-24T18:55:14.657Z,77.00
2022-11-24T18:57:14.686Z,77.00
2022-11-24T18:59:14.840Z,77.00
2022-11-24T19:01:14.834Z,77.00
2022-11-24T19:03:14.621Z,77.00
2022-11-24T19:05:14.720Z,77.00
2022-11-24T19:07:14.659Z,77.00
2022-11-24T19:09:14.654Z,77.00
2022-11-24T19:11:14.613Z,77.00
2022-11-24T19:13:14.689Z,77.00
2022-11-24T19:15:14.648Z,77.00
2022-11-24T19:17:14.701Z,77.00
2022-11-24T19:19:14.590Z,77.00
2022-11-24T19:21:14.605Z,77.00
2022-11-24T19:23:14.632Z,78.00
2022-11-24T19:25:14.674Z,78.00
2022-11-24T19:27:14.633Z,78.00
2022-11-24T19:29:14.708Z,78.00
2022-11-24T19:31:14.726Z,78.00
2022-11-24T19:33:14.705Z,78.00
2022-11-24T19:35:14.595Z,77.00
2022-11-24T19:37:14.620Z,77.00
2022-11-24T19:39:14.626Z,77.00
2022-11-24T19:41:14.663Z,77.00
2022-11-24T19:43:14.690Z,77.00
2022-11-24T19:45:14.556Z,77.00
2022-11-24T19:47:14.677Z,77.00
2022-11-24T19:49:14.627Z,77.00
2022-11-24T19:51:14.597Z,77.00
2022-11-24T19:53:14.641Z,77.00
2022-11-24T19:55:14.689Z,77.00
2022-11-24T19:57:14.671Z,77.00
2022-11-24T19:59:14.689Z,77.00
2022-11-24T20:01:14.652Z,77.00
2022-11-24T20:03:14.790Z,77.00
2022-11-24T20:05:14.645Z,77.00
2022-11-24T20:07:14.964Z,77.00
2022-11-24T20:09:14.690Z,77.00
2022-11-24T20:11:14.726Z,77.00
2022-11-24T20:13:14.705Z,77.00
2022-11-24T20:15:14.689Z,77.00
2022-11-24T20:17:14.712Z,77.00
2022-11-24T20:19:14.721Z,77.00
2022-11-24T20:21:14.626Z,77.00
2022-11-24T20:23:14.661Z,77.00
2022-11-24T20:25:14.647Z,77.00
2022-11-24T20:27:15.616Z,77.00
2022-11-24T20:29:14.721Z,77.00
2022-11-24T20:31:14.682Z,77.00
2022-11-24T20:33:14.751Z,77.00
2022-11-24T20:35:18.205Z,77.00
2022-11-24T20:37:14.695Z,77.00
2022-11-24T20:39:44.661Z,77.00
2022-11-24T20:41:44.723Z,77.00
2022-11-24T20:43:44.677Z,77.00
2022-11-24T20:45:47.466Z,77.00
2022-11-24T20:47:44.631Z,77.00
2022-11-24T20:49:44.762Z,77.00
2022-11-24T20:51:44.667Z,77.00
2022-11-24T20:53:44.681Z,77.00
2022-11-24T20:55:44.717Z,77.00
2022-11-24T20:57:44.759Z,77.00
2022-11-24T20:59:44.769Z,76.00
2022-11-24T21:01:44.700Z,76.00
2022-11-24T21:03:44.720Z,76.00
2022-11-24T21:05:44.779Z,76.00
2022-11-24T21:07:44.681Z,76.00
2022-11-24T21:09:44.689Z,76.00
2022-11-24T21:11:44.675Z,76.00
2022-11-24T21:13:44.708Z,76.00
2022-11-24T21:15:44.729Z,76.00
2022-11-24T21:17:44.769Z,76.00
2022-11-24T21:19:44.785Z,76.00
2022-11-24T21:21:44.724Z,76.00
2022-11-24T21:23:44.702Z,77.00
2022-11-24T21:25:44.701Z,77.00
2022-11-24T21:27:44.748Z,77.00
2022-11-24T21:29:44.751Z,77.00
2022-11-24T21:31:44.831Z,77.00
2022-11-24T21:33:44.657Z,77.00
2022-11-24T21:35:44.729Z,77.00
2022-11-24T21:37:44.766Z,77.00
2022-11-24T21:39:44.858Z,77.00
2022-11-24T21:41:44.747Z,77.00
2022-11-24T21:43:44.708Z,77.00
2022-11-24T21:45:44.815Z,77.00
2022-11-24T21:47:44.795Z,77.00
2022-11-24T21:49:44.669Z,77.00
2022-11-24T21:51:44.699Z,77.00
2022-11-24T21:53:44.803Z,78.00
2022-11-24T21:55:44.722Z,78.00
2022-11-24T21:57:44.822Z,78.00
2022-11-24T21:59:45.004Z,78.00
2022-11-24T22:01:56.060Z,78.00
2022-11-24T22:03:56.051Z,78.00
2022-11-24T22:05:56.171Z,78.00
2022-11-24T22:07:56.226Z,78.00
2022-11-24T22:09:56.113Z,78.00
2022-11-24T22:11:56.064Z,78.00
2022-11-24T22:13:56.092Z,78.00
2022-11-24T22:15:56.112Z,78.00
2022-11-24T22:17:56.117Z,78.00
2022-11-24T22:19:56.061Z,78.00
2022-11-24T22:21:56.046Z,78.00
2022-11-24T22:23:56.082Z,78.00
2022-11-24T22:25:56.149Z,78.00
2022-11-24T22:27:56.136Z,78.00
2022-11-24T22:29:56.388Z,78.00
2022-11-24T22:31:56.212Z,78.00
2022-11-24T22:33:56.145Z,78.00
2022-11-24T22:35:56.081Z,78.00
2022-11-24T22:37:56.067Z,78.00
2022-11-24T22:39:56.127Z,78.00
2022-11-24T22:41:56.114Z,78.00
2022-11-24T22:43:56.115Z,78.00
2022-11-24T22:45:56.182Z,78.00
2022-11-24T22:47:56.155Z,78.00
2022-11-24T22:49:56.048Z,78.00
2022-11-24T22:51:56.098Z,78.00
2022-11-24T22:53:56.105Z,78.00
2022-11-24T22:55:56.110Z,78.00
2022-11-24T22:57:57.208Z,78.00
2022-11-24T22:59:56.027Z,78.00
2022-11-24T23:01:56.041Z,78.00
2022-11-24T23:03:56.221Z,78.00
2022-11-24T23:05:56.097Z,78.00
2022-11-24T23:07:56.169Z,79.00
2022-11-24T23:10:26.111Z,79.00
2022-11-24T23:12:26.130Z,79.00
2022-11-24T23:14:26.131Z,79.00
2022-11-24T23:16:26.183Z,79.00
2022-11-24T23:18:26.171Z,79.00
2022-11-24T23:20:26.204Z,79.00
2022-11-24T23:22:26.142Z,79.00
2022-11-24T23:24:26.121Z,79.00
2022-11-24T23:26:26.150Z,79.00
2022-11-24T23:28:26.134Z,79.00
2022-11-24T23:30:26.168Z,79.00
2022-11-24T23:32:26.126Z,79.00
2022-11-24T23:34:26.228Z,79.00
2022-11-24T23:36:26.066Z,79.00
2022-11-24T23:38:26.040Z,79.00
2022-11-24T23:40:26.050Z,79.00
2022-11-24T23:42:26.175Z,79.00
2022-11-24T23:44:26.156Z,79.00
2022-11-24T23:46:26.202Z,79.00
2022-11-24T23:48:26.242Z,79.00
2022-11-24T23:50:26.081Z,79.00
2022-11-24T23:52:26.106Z,79.00
2022-11-24T23:54:26.094Z,80.00
2022-11-24T23:56:26.099Z,80.00
2022-11-24T23:58:26.064Z,80.00
